sensor_id;sensor_type;location;lat;lon;timestamp;P1;durP1;ratioP1;P2;durP2;ratioP2
11807;SDS011;5961;42.640;23.380;2023-03-04T00:02:06;17.37;;;12.37;;
11807;SDS011;5961;42.640;23.380;2023-03-04T00:04:32;19.03;;;12.83;;
11807;SDS011;5961;42.640;23.380;2023-03-04T00:06:59;17.23;;;12.37;;
11807;SDS011;5961;42.640;23.380;2023-03-04T00:09:26;19.93;;;13.53;;
11807;SDS011;5961;42.640;23.380;2023-03-04T00:11:52;18.37;;;13.07;;
11807;SDS011;5961;42.640;23.380;2023-03-04T00:14:19;19.47;;;13.10;;
11807;SDS011;5961;42.640;23.380;2023-03-04T00:16:48;17.73;;;12.70;;
11807;SDS011;5961;42.640;23.380;2023-03-04T00:19:14;17.70;;;12.77;;
11807;SDS011;5961;42.640;23.380;2023-03-04T00:21:41;19.30;;;13.37;;
11807;SDS011;5961;42.640;23.380;2023-03-04T00:24:08;19.30;;;12.63;;
11807;SDS011;5961;42.640;23.380;2023-03-04T00:26:35;19.87;;;13.23;;
11807;SDS011;5961;42.640;23.380;2023-03-04T00:29:01;17.10;;;12.43;;
11807;SDS011;5961;42.640;23.380;2023-03-04T00:31:28;17.90;;;12.83;;
11807;SDS011;5961;42.640;23.380;2023-03-04T00:33:56;20.83;;;13.17;;
11807;SDS011;5961;42.640;23.380;2023-03-04T00:36:23;18.30;;;13.07;;
11807;SDS011;5961;42.640;23.380;2023-03-04T00:38:50;19.47;;;12.17;;
11807;SDS011;5961;42.640;23.380;2023-03-04T00:41:17;16.67;;;11.83;;
11807;SDS011;5961;42.640;23.380;2023-03-04T00:43:43;17.20;;;11.23;;
11807;SDS011;5961;42.640;23.380;2023-03-04T00:46:10;18.20;;;12.00;;
11807;SDS011;5961;42.640;23.380;2023-03-04T00:48:37;15.87;;;11.27;;
11807;SDS011;5961;42.640;23.380;2023-03-04T00:51:05;17.23;;;11.73;;
11807;SDS011;5961;42.640;23.380;2023-03-04T00:53:32;16.27;;;11.60;;
11807;SDS011;5961;42.640;23.380;2023-03-04T00:55:58;17.27;;;11.53;;
11807;SDS011;5961;42.640;23.380;2023-03-04T00:58:25;16.07;;;11.60;;
11807;SDS011;5961;42.640;23.380;2023-03-04T01:00:52;15.23;;;11.07;;
11807;SDS011;5961;42.640;23.380;2023-03-04T01:03:18;15.50;;;10.17;;
11807;SDS011;5961;42.640;23.380;2023-03-04T01:05:45;16.43;;;10.97;;
11807;SDS011;5961;42.640;23.380;2023-03-04T01:08:13;14.67;;;10.57;;
11807;SDS011;5961;42.640;23.380;2023-03-04T01:10:40;15.30;;;10.50;;
11807;SDS011;5961;42.640;23.380;2023-03-04T01:13:06;17.90;;;10.93;;
11807;SDS011;5961;42.640;23.380;2023-03-04T01:15:33;16.90;;;11.63;;
11807;SDS011;5961;42.640;23.380;2023-03-04T01:18:00;17.00;;;11.20;;
11807;SDS011;5961;42.640;23.380;2023-03-04T01:20:27;18.17;;;11.93;;
11807;SDS011;5961;42.640;23.380;2023-03-04T01:22:53;17.70;;;11.80;;
11807;SDS011;5961;42.640;23.380;2023-03-04T01:25:21;16.10;;;10.73;;
11807;SDS011;5961;42.640;23.380;2023-03-04T01:27:48;16.80;;;10.97;;
11807;SDS011;5961;42.640;23.380;2023-03-04T01:30:15;16.10;;;11.20;;
11807;SDS011;5961;42.640;23.380;2023-03-04T01:32:42;16.63;;;11.17;;
11807;SDS011;5961;42.640;23.380;2023-03-04T01:35:08;18.03;;;11.90;;
11807;SDS011;5961;42.640;23.380;2023-03-04T01:37:35;17.97;;;11.60;;
11807;SDS011;5961;42.640;23.380;2023-03-04T01:40:02;17.60;;;12.23;;
11807;SDS011;5961;42.640;23.380;2023-03-04T01:42:31;16.57;;;11.53;;
11807;SDS011;5961;42.640;23.380;2023-03-04T01:44:59;16.83;;;11.23;;
11807;SDS011;5961;42.640;23.380;2023-03-04T01:47:27;15.73;;;11.57;;
11807;SDS011;5961;42.640;23.380;2023-03-04T01:49:56;15.80;;;11.07;;
11807;SDS011;5961;42.640;23.380;2023-03-04T01:52:26;17.60;;;10.97;;
11807;SDS011;5961;42.640;23.380;2023-03-04T01:54:53;15.33;;;11.03;;
11807;SDS011;5961;42.640;23.380;2023-03-04T01:57:21;16.97;;;11.60;;
11807;SDS011;5961;42.640;23.380;2023-03-04T02:02:43;14.07;;;10.27;;
11807;SDS011;5961;42.640;23.380;2023-03-04T02:05:10;15.97;;;10.40;;
11807;SDS011;5961;42.640;23.380;2023-03-04T02:07:38;16.63;;;10.70;;
11807;SDS011;5961;42.640;23.380;2023-03-04T02:10:05;15.10;;;10.67;;
11807;SDS011;5961;42.640;23.380;2023-03-04T02:12:32;17.63;;;10.67;;
11807;SDS011;5961;42.640;23.380;2023-03-04T02:14:59;17.87;;;11.03;;
11807;SDS011;5961;42.640;23.380;2023-03-04T02:17:27;14.70;;;10.03;;
11807;SDS011;5961;42.640;23.380;2023-03-04T02:19:55;14.23;;;10.10;;
11807;SDS011;5961;42.640;23.380;2023-03-04T02:22:27;16.43;;;10.33;;
11807;SDS011;5961;42.640;23.380;2023-03-04T02:24:55;16.47;;;10.87;;
11807;SDS011;5961;42.640;23.380;2023-03-04T02:27:26;16.97;;;11.07;;
11807;SDS011;5961;42.640;23.380;2023-03-04T02:29:52;19.17;;;12.50;;
11807;SDS011;5961;42.640;23.380;2023-03-04T02:32:19;16.33;;;11.40;;
11807;SDS011;5961;42.640;23.380;2023-03-04T02:34:47;13.87;;;9.83;;
11807;SDS011;5961;42.640;23.380;2023-03-04T02:37:16;17.03;;;10.30;;
11807;SDS011;5961;42.640;23.380;2023-03-04T02:39:44;14.70;;;9.97;;
11807;SDS011;5961;42.640;23.380;2023-03-04T02:42:12;15.27;;;11.03;;
11807;SDS011;5961;42.640;23.380;2023-03-04T02:44:41;14.40;;;10.27;;
11807;SDS011;5961;42.640;23.380;2023-03-04T02:47:12;14.47;;;9.93;;
11807;SDS011;5961;42.640;23.380;2023-03-04T02:49:41;13.77;;;9.93;;
11807;SDS011;5961;42.640;23.380;2023-03-04T02:52:09;12.70;;;8.90;;
11807;SDS011;5961;42.640;23.380;2023-03-04T02:54:39;12.50;;;8.90;;
11807;SDS011;5961;42.640;23.380;2023-03-04T02:57:07;12.80;;;7.73;;
11807;SDS011;5961;42.640;23.380;2023-03-04T02:59:35;11.17;;;8.00;;
11807;SDS011;5961;42.640;23.380;2023-03-04T03:02:04;12.47;;;8.27;;
11807;SDS011;5961;42.640;23.380;2023-03-04T03:04:32;13.67;;;9.30;;
11807;SDS011;5961;42.640;23.380;2023-03-04T03:06:59;13.47;;;9.47;;
11807;SDS011;5961;42.640;23.380;2023-03-04T03:09:26;15.73;;;10.03;;
11807;SDS011;5961;42.640;23.380;2023-03-04T03:11:53;16.07;;;10.53;;
11807;SDS011;5961;42.640;23.380;2023-03-04T03:14:19;15.17;;;10.63;;
11807;SDS011;5961;42.640;23.380;2023-03-04T03:16:46;17.30;;;10.90;;
11807;SDS011;5961;42.640;23.380;2023-03-04T03:19:14;16.20;;;10.70;;
11807;SDS011;5961;42.640;23.380;2023-03-04T03:21:41;16.33;;;10.77;;
11807;SDS011;5961;42.640;23.380;2023-03-04T03:24:07;19.53;;;12.20;;
11807;SDS011;5961;42.640;23.380;2023-03-04T03:26:34;15.93;;;11.03;;
11807;SDS011;5961;42.640;23.380;2023-03-04T03:29:01;17.00;;;11.17;;
11807;SDS011;5961;42.640;23.380;2023-03-04T03:31:28;16.90;;;11.50;;
11807;SDS011;5961;42.640;23.380;2023-03-04T03:33:54;17.10;;;10.97;;
11807;SDS011;5961;42.640;23.380;2023-03-04T03:36:22;17.87;;;11.17;;
11807;SDS011;5961;42.640;23.380;2023-03-04T03:38:49;16.23;;;10.73;;
11807;SDS011;5961;42.640;23.380;2023-03-04T03:41:16;17.20;;;11.10;;
11807;SDS011;5961;42.640;23.380;2023-03-04T03:43:43;20.73;;;11.60;;
11807;SDS011;5961;42.640;23.380;2023-03-04T03:46:09;17.13;;;10.90;;
11807;SDS011;5961;42.640;23.380;2023-03-04T03:48:36;15.87;;;11.40;;
11807;SDS011;5961;42.640;23.380;2023-03-04T03:51:03;19.17;;;11.70;;
11807;SDS011;5961;42.640;23.380;2023-03-04T03:53:31;15.93;;;11.33;;
11807;SDS011;5961;42.640;23.380;2023-03-04T03:55:57;15.80;;;11.13;;
11807;SDS011;5961;42.640;23.380;2023-03-04T03:58:24;16.27;;;11.07;;
11807;SDS011;5961;42.640;23.380;2023-03-04T04:00:51;18.37;;;10.80;;
11807;SDS011;5961;42.640;23.380;2023-03-04T04:03:18;18.53;;;11.90;;
11807;SDS011;5961;42.640;23.380;2023-03-04T04:05:45;17.47;;;11.77;;
11807;SDS011;5961;42.640;23.380;2023-03-04T04:08:12;16.83;;;11.63;;
11807;SDS011;5961;42.640;23.380;2023-03-04T04:10:41;20.23;;;11.87;;
11807;SDS011;5961;42.640;23.380;2023-03-04T04:13:08;16.17;;;10.97;;
11807;SDS011;5961;42.640;23.380;2023-03-04T04:15:35;18.57;;;11.33;;
11807;SDS011;5961;42.640;23.380;2023-03-04T04:18:03;16.63;;;11.97;;
11807;SDS011;5961;42.640;23.380;2023-03-04T04:20:29;19.23;;;11.73;;
11807;SDS011;5961;42.640;23.380;2023-03-04T04:22:56;15.03;;;10.10;;
11807;SDS011;5961;42.640;23.380;2023-03-04T04:25:23;16.30;;;10.47;;
11807;SDS011;5961;42.640;23.380;2023-03-04T04:27:51;16.73;;;10.47;;
11807;SDS011;5961;42.640;23.380;2023-03-04T04:30:18;17.17;;;10.67;;
11807;SDS011;5961;42.640;23.380;2023-03-04T04:32:45;18.90;;;12.10;;
11807;SDS011;5961;42.640;23.380;2023-03-04T04:35:12;17.03;;;11.17;;
11807;SDS011;5961;42.640;23.380;2023-03-04T04:37:38;19.47;;;11.87;;
11807;SDS011;5961;42.640;23.380;2023-03-04T04:40:05;18.63;;;11.17;;
11807;SDS011;5961;42.640;23.380;2023-03-04T04:42:33;17.07;;;11.30;;
11807;SDS011;5961;42.640;23.380;2023-03-04T04:45:01;22.07;;;12.37;;
11807;SDS011;5961;42.640;23.380;2023-03-04T04:47:27;18.30;;;11.30;;
11807;SDS011;5961;42.640;23.380;2023-03-04T04:49:54;14.50;;;9.80;;
11807;SDS011;5961;42.640;23.380;2023-03-04T04:52:21;15.73;;;10.27;;
11807;SDS011;5961;42.640;23.380;2023-03-04T04:54:47;13.00;;;8.90;;
11807;SDS011;5961;42.640;23.380;2023-03-04T04:57:14;13.93;;;9.47;;
11807;SDS011;5961;42.640;23.380;2023-03-04T04:59:41;14.00;;;9.20;;
11807;SDS011;5961;42.640;23.380;2023-03-04T05:02:09;16.03;;;9.03;;
11807;SDS011;5961;42.640;23.380;2023-03-04T05:04:35;13.40;;;8.53;;
11807;SDS011;5961;42.640;23.380;2023-03-04T05:07:02;13.57;;;8.87;;
11807;SDS011;5961;42.640;23.380;2023-03-04T05:09:29;16.30;;;8.90;;
11807;SDS011;5961;42.640;23.380;2023-03-04T05:11:56;13.13;;;8.93;;
11807;SDS011;5961;42.640;23.380;2023-03-04T05:14:22;14.33;;;8.60;;
11807;SDS011;5961;42.640;23.380;2023-03-04T05:16:49;14.17;;;8.80;;
11807;SDS011;5961;42.640;23.380;2023-03-04T05:19:18;12.73;;;8.13;;
11807;SDS011;5961;42.640;23.380;2023-03-04T05:21:46;12.63;;;8.20;;
11807;SDS011;5961;42.640;23.380;2023-03-04T05:24:13;15.17;;;9.03;;
11807;SDS011;5961;42.640;23.380;2023-03-04T05:26:39;15.77;;;8.93;;
11807;SDS011;5961;42.640;23.380;2023-03-04T05:29:06;15.90;;;8.83;;
11807;SDS011;5961;42.640;23.380;2023-03-04T05:31:33;12.40;;;8.50;;
11807;SDS011;5961;42.640;23.380;2023-03-04T05:34:00;14.70;;;9.13;;
11807;SDS011;5961;42.640;23.380;2023-03-04T05:36:28;14.77;;;9.10;;
11807;SDS011;5961;42.640;23.380;2023-03-04T05:38:54;11.63;;;8.17;;
11807;SDS011;5961;42.640;23.380;2023-03-04T05:41:21;13.57;;;8.87;;
11807;SDS011;5961;42.640;23.380;2023-03-04T05:43:48;17.63;;;9.77;;
11807;SDS011;5961;42.640;23.380;2023-03-04T05:46:16;13.63;;;9.40;;
11807;SDS011;5961;42.640;23.380;2023-03-04T05:48:48;14.13;;;9.47;;
11807;SDS011;5961;42.640;23.380;2023-03-04T05:51:15;13.63;;;9.53;;
11807;SDS011;5961;42.640;23.380;2023-03-04T05:53:43;13.97;;;9.23;;
11807;SDS011;5961;42.640;23.380;2023-03-04T05:56:10;14.10;;;8.83;;
11807;SDS011;5961;42.640;23.380;2023-03-04T05:58:38;11.63;;;7.53;;
11807;SDS011;5961;42.640;23.380;2023-03-04T06:01:05;12.60;;;8.03;;
11807;SDS011;5961;42.640;23.380;2023-03-04T06:03:32;13.80;;;8.60;;
11807;SDS011;5961;42.640;23.380;2023-03-04T06:05:59;12.53;;;8.27;;
11807;SDS011;5961;42.640;23.380;2023-03-04T06:08:26;12.80;;;8.80;;
11807;SDS011;5961;42.640;23.380;2023-03-04T06:10:55;15.57;;;10.07;;
11807;SDS011;5961;42.640;23.380;2023-03-04T06:13:23;12.90;;;8.23;;
11807;SDS011;5961;42.640;23.380;2023-03-04T06:15:52;15.30;;;10.20;;
11807;SDS011;5961;42.640;23.380;2023-03-04T06:18:20;19.47;;;11.97;;
11807;SDS011;5961;42.640;23.380;2023-03-04T06:20:47;13.93;;;9.47;;
11807;SDS011;5961;42.640;23.380;2023-03-04T06:23:14;13.53;;;9.43;;
11807;SDS011;5961;42.640;23.380;2023-03-04T06:25:41;14.17;;;8.70;;
11807;SDS011;5961;42.640;23.380;2023-03-04T06:28:10;12.30;;;8.87;;
11807;SDS011;5961;42.640;23.380;2023-03-04T06:30:36;14.50;;;8.90;;
11807;SDS011;5961;42.640;23.380;2023-03-04T06:33:03;11.90;;;8.77;;
11807;SDS011;5961;42.640;23.380;2023-03-04T06:35:30;13.93;;;9.07;;
11807;SDS011;5961;42.640;23.380;2023-03-04T06:37:56;15.00;;;9.17;;
11807;SDS011;5961;42.640;23.380;2023-03-04T06:40:23;14.30;;;8.13;;
11807;SDS011;5961;42.640;23.380;2023-03-04T06:42:50;10.53;;;7.60;;
11807;SDS011;5961;42.640;23.380;2023-03-04T06:45:18;13.90;;;8.37;;
11807;SDS011;5961;42.640;23.380;2023-03-04T06:47:44;12.63;;;9.30;;
11807;SDS011;5961;42.640;23.380;2023-03-04T06:50:11;12.13;;;7.83;;
11807;SDS011;5961;42.640;23.380;2023-03-04T06:52:38;13.13;;;8.67;;
11807;SDS011;5961;42.640;23.380;2023-03-04T06:55:06;13.50;;;9.30;;
11807;SDS011;5961;42.640;23.380;2023-03-04T06:57:33;17.10;;;9.67;;
11807;SDS011;5961;42.640;23.380;2023-03-04T07:00:00;18.20;;;10.90;;
11807;SDS011;5961;42.640;23.380;2023-03-04T07:02:28;17.53;;;11.77;;
11807;SDS011;5961;42.640;23.380;2023-03-04T07:04:55;17.70;;;11.00;;
11807;SDS011;5961;42.640;23.380;2023-03-04T07:07:22;19.30;;;11.90;;
11807;SDS011;5961;42.640;23.380;2023-03-04T07:09:50;22.67;;;13.00;;
11807;SDS011;5961;42.640;23.380;2023-03-04T07:12:16;21.03;;;12.37;;
11807;SDS011;5961;42.640;23.380;2023-03-04T07:14:43;24.03;;;14.17;;
11807;SDS011;5961;42.640;23.380;2023-03-04T07:17:10;28.03;;;14.87;;
11807;SDS011;5961;42.640;23.380;2023-03-04T07:19:38;21.23;;;14.10;;
11807;SDS011;5961;42.640;23.380;2023-03-04T07:22:06;20.90;;;14.07;;
11807;SDS011;5961;42.640;23.380;2023-03-04T07:24:32;22.17;;;14.23;;
11807;SDS011;5961;42.640;23.380;2023-03-04T07:26:59;22.40;;;13.93;;
11807;SDS011;5961;42.640;23.380;2023-03-04T07:29:26;18.87;;;12.73;;
11807;SDS011;5961;42.640;23.380;2023-03-04T07:31:52;22.27;;;14.10;;
11807;SDS011;5961;42.640;23.380;2023-03-04T07:34:19;19.97;;;14.00;;
11807;SDS011;5961;42.640;23.380;2023-03-04T07:36:48;22.77;;;15.07;;
11807;SDS011;5961;42.640;23.380;2023-03-04T07:39:14;26.17;;;16.30;;
11807;SDS011;5961;42.640;23.380;2023-03-04T07:41:41;32.30;;;20.97;;
11807;SDS011;5961;42.640;23.380;2023-03-04T07:44:08;29.57;;;19.27;;
11807;SDS011;5961;42.640;23.380;2023-03-04T07:46:37;28.83;;;18.63;;
11807;SDS011;5961;42.640;23.380;2023-03-04T07:49:04;31.23;;;20.40;;
11807;SDS011;5961;42.640;23.380;2023-03-04T07:51:30;28.27;;;18.47;;
11807;SDS011;5961;42.640;23.380;2023-03-04T07:54:00;28.53;;;19.47;;
11807;SDS011;5961;42.640;23.380;2023-03-04T07:56:28;29.43;;;18.77;;
11807;SDS011;5961;42.640;23.380;2023-03-04T07:58:56;27.10;;;17.67;;
11807;SDS011;5961;42.640;23.380;2023-03-04T08:01:23;27.67;;;17.60;;
11807;SDS011;5961;42.640;23.380;2023-03-04T08:03:51;26.33;;;17.27;;
11807;SDS011;5961;42.640;23.380;2023-03-04T08:06:19;27.87;;;17.30;;
11807;SDS011;5961;42.640;23.380;2023-03-04T08:08:47;27.20;;;17.90;;
11807;SDS011;5961;42.640;23.380;2023-03-04T08:11:17;24.67;;;16.20;;
11807;SDS011;5961;42.640;23.380;2023-03-04T08:13:45;24.00;;;15.03;;
11807;SDS011;5961;42.640;23.380;2023-03-04T08:16:13;23.30;;;14.27;;
11807;SDS011;5961;42.640;23.380;2023-03-04T08:18:41;24.33;;;14.80;;
11807;SDS011;5961;42.640;23.380;2023-03-04T08:21:09;26.20;;;16.50;;
11807;SDS011;5961;42.640;23.380;2023-03-04T08:23:36;26.10;;;15.63;;
11807;SDS011;5961;42.640;23.380;2023-03-04T08:26:07;26.33;;;15.53;;
11807;SDS011;5961;42.640;23.380;2023-03-04T08:28:35;24.23;;;14.73;;
11807;SDS011;5961;42.640;23.380;2023-03-04T08:31:03;24.37;;;15.60;;
11807;SDS011;5961;42.640;23.380;2023-03-04T08:33:30;23.20;;;15.20;;
11807;SDS011;5961;42.640;23.380;2023-03-04T08:35:57;23.07;;;15.87;;
11807;SDS011;5961;42.640;23.380;2023-03-04T08:38:24;26.80;;;16.73;;
11807;SDS011;5961;42.640;23.380;2023-03-04T08:40:51;29.47;;;18.50;;
11807;SDS011;5961;42.640;23.380;2023-03-04T08:43:18;24.20;;;15.37;;
11807;SDS011;5961;42.640;23.380;2023-03-04T08:45:47;25.30;;;15.73;;
11807;SDS011;5961;42.640;23.380;2023-03-04T08:48:14;25.50;;;15.13;;
11807;SDS011;5961;42.640;23.380;2023-03-04T08:50:42;24.40;;;14.53;;
11807;SDS011;5961;42.640;23.380;2023-03-04T08:53:09;23.30;;;13.73;;
11807;SDS011;5961;42.640;23.380;2023-03-04T08:55:36;23.67;;;15.27;;
11807;SDS011;5961;42.640;23.380;2023-03-04T08:58:03;24.90;;;14.50;;
11807;SDS011;5961;42.640;23.380;2023-03-04T09:00:30;24.83;;;15.10;;
11807;SDS011;5961;42.640;23.380;2023-03-04T09:02:59;23.03;;;14.67;;
11807;SDS011;5961;42.640;23.380;2023-03-04T09:05:26;23.33;;;14.73;;
11807;SDS011;5961;42.640;23.380;2023-03-04T09:07:52;23.83;;;15.30;;
11807;SDS011;5961;42.640;23.380;2023-03-04T09:10:19;21.27;;;15.37;;
11807;SDS011;5961;42.640;23.380;2023-03-04T09:12:46;22.00;;;14.30;;
11807;SDS011;5961;42.640;23.380;2023-03-04T09:15:12;20.60;;;13.37;;
11807;SDS011;5961;42.640;23.380;2023-03-04T09:17:39;20.87;;;13.37;;
11807;SDS011;5961;42.640;23.380;2023-03-04T09:20:08;18.60;;;13.43;;
11807;SDS011;5961;42.640;23.380;2023-03-04T09:22:37;21.03;;;15.03;;
11807;SDS011;5961;42.640;23.380;2023-03-04T09:25:05;25.67;;;15.90;;
11807;SDS011;5961;42.640;23.380;2023-03-04T09:27:32;25.57;;;16.43;;
11807;SDS011;5961;42.640;23.380;2023-03-04T09:29:59;27.23;;;16.87;;
11807;SDS011;5961;42.640;23.380;2023-03-04T09:32:25;24.43;;;16.53;;
11807;SDS011;5961;42.640;23.380;2023-03-04T09:34:52;26.37;;;17.37;;
11807;SDS011;5961;42.640;23.380;2023-03-04T09:37:20;23.40;;;16.40;;
11807;SDS011;5961;42.640;23.380;2023-03-04T09:39:47;31.27;;;17.23;;
11807;SDS011;5961;42.640;23.380;2023-03-04T09:42:16;28.27;;;17.37;;
11807;SDS011;5961;42.640;23.380;2023-03-04T09:44:51;27.43;;;17.03;;
11807;SDS011;5961;42.640;23.380;2023-03-04T09:47:19;26.67;;;16.73;;
11807;SDS011;5961;42.640;23.380;2023-03-04T09:49:50;26.87;;;17.80;;
11807;SDS011;5961;42.640;23.380;2023-03-04T09:52:26;26.57;;;17.27;;
11807;SDS011;5961;42.640;23.380;2023-03-04T09:55:03;26.63;;;16.73;;
11807;SDS011;5961;42.640;23.380;2023-03-04T09:57:42;26.00;;;17.23;;
11807;SDS011;5961;42.640;23.380;2023-03-04T10:00:13;26.80;;;16.37;;
11807;SDS011;5961;42.640;23.380;2023-03-04T10:02:45;24.80;;;15.93;;
11807;SDS011;5961;42.640;23.380;2023-03-04T10:05:25;24.07;;;16.73;;
11807;SDS011;5961;42.640;23.380;2023-03-04T10:07:58;23.23;;;16.33;;
11807;SDS011;5961;42.640;23.380;2023-03-04T10:10:29;26.53;;;16.27;;
11807;SDS011;5961;42.640;23.380;2023-03-04T10:12:59;22.40;;;15.50;;
11807;SDS011;5961;42.640;23.380;2023-03-04T10:15:30;22.80;;;15.53;;
11807;SDS011;5961;42.640;23.380;2023-03-04T10:18:02;22.73;;;15.40;;
11807;SDS011;5961;42.640;23.380;2023-03-04T10:20:42;21.13;;;14.50;;
11807;SDS011;5961;42.640;23.380;2023-03-04T10:23:18;25.97;;;16.23;;
11807;SDS011;5961;42.640;23.380;2023-03-04T10:25:48;23.23;;;14.63;;
11807;SDS011;5961;42.640;23.380;2023-03-04T10:28:19;27.90;;;16.97;;
11807;SDS011;5961;42.640;23.380;2023-03-04T10:30:49;24.23;;;16.40;;
11807;SDS011;5961;42.640;23.380;2023-03-04T10:33:22;25.20;;;16.37;;
11807;SDS011;5961;42.640;23.380;2023-03-04T10:35:52;37.40;;;23.87;;
11807;SDS011;5961;42.640;23.380;2023-03-04T10:38:27;31.40;;;21.67;;
11807;SDS011;5961;42.640;23.380;2023-03-04T10:40:55;38.07;;;25.57;;
11807;SDS011;5961;42.640;23.380;2023-03-04T10:43:23;31.73;;;19.07;;
11807;SDS011;5961;42.640;23.380;2023-03-04T10:45:53;29.10;;;18.43;;
11807;SDS011;5961;42.640;23.380;2023-03-04T10:48:22;27.83;;;17.57;;
11807;SDS011;5961;42.640;23.380;2023-03-04T10:50:51;20.43;;;13.90;;
11807;SDS011;5961;42.640;23.380;2023-03-04T10:53:22;26.63;;;17.67;;
11807;SDS011;5961;42.640;23.380;2023-03-04T10:55:55;25.10;;;17.27;;
11807;SDS011;5961;42.640;23.380;2023-03-04T10:58:21;23.70;;;16.00;;
11807;SDS011;5961;42.640;23.380;2023-03-04T11:03:31;29.93;;;18.40;;
11807;SDS011;5961;42.640;23.380;2023-03-04T11:06:09;28.87;;;17.23;;
11807;SDS011;5961;42.640;23.380;2023-03-04T11:08:42;23.07;;;15.80;;
11807;SDS011;5961;42.640;23.380;2023-03-04T11:11:24;30.00;;;16.57;;
11807;SDS011;5961;42.640;23.380;2023-03-04T11:13:59;25.00;;;15.50;;
11807;SDS011;5961;42.640;23.380;2023-03-04T11:16:30;25.97;;;16.43;;
11807;SDS011;5961;42.640;23.380;2023-03-04T11:19:00;23.67;;;15.30;;
11807;SDS011;5961;42.640;23.380;2023-03-04T11:21:30;31.20;;;18.67;;
11807;SDS011;5961;42.640;23.380;2023-03-04T11:24:08;24.37;;;15.27;;
11807;SDS011;5961;42.640;23.380;2023-03-04T11:26:39;23.43;;;14.83;;
11807;SDS011;5961;42.640;23.380;2023-03-04T11:29:11;23.77;;;14.40;;
11807;SDS011;5961;42.640;23.380;2023-03-04T11:31:42;22.07;;;14.83;;
11807;SDS011;5961;42.640;23.380;2023-03-04T11:34:14;23.53;;;15.27;;
11807;SDS011;5961;42.640;23.380;2023-03-04T11:36:51;25.80;;;16.47;;
11807;SDS011;5961;42.640;23.380;2023-03-04T11:39:25;23.97;;;15.07;;
11807;SDS011;5961;42.640;23.380;2023-03-04T11:41:59;22.30;;;13.93;;
11807;SDS011;5961;42.640;23.380;2023-03-04T11:44:30;24.83;;;15.87;;
11807;SDS011;5961;42.640;23.380;2023-03-04T11:47:02;19.23;;;13.60;;
11807;SDS011;5961;42.640;23.380;2023-03-04T11:49:45;22.47;;;14.37;;
11807;SDS011;5961;42.640;23.380;2023-03-04T11:52:35;17.77;;;13.80;;
11807;SDS011;5961;42.640;23.380;2023-03-04T11:55:30;24.33;;;14.27;;
11807;SDS011;5961;42.640;23.380;2023-03-04T11:58:06;21.83;;;13.83;;
11807;SDS011;5961;42.640;23.380;2023-03-04T12:00:44;22.70;;;14.60;;
11807;SDS011;5961;42.640;23.380;2023-03-04T12:03:23;23.00;;;15.13;;
11807;SDS011;5961;42.640;23.380;2023-03-04T12:06:08;26.80;;;14.17;;
11807;SDS011;5961;42.640;23.380;2023-03-04T12:08:53;24.77;;;14.63;;
11807;SDS011;5961;42.640;23.380;2023-03-04T12:11:39;26.13;;;15.10;;
11807;SDS011;5961;42.640;23.380;2023-03-04T12:14:22;25.40;;;15.70;;
11807;SDS011;5961;42.640;23.380;2023-03-04T12:20:02;21.53;;;15.47;;
11807;SDS011;5961;42.640;23.380;2023-03-04T12:22:50;19.30;;;14.03;;
11807;SDS011;5961;42.640;23.380;2023-03-04T12:28:25;23.03;;;14.97;;
11807;SDS011;5961;42.640;23.380;2023-03-04T12:31:07;23.13;;;15.27;;
11807;SDS011;5961;42.640;23.380;2023-03-04T12:33:52;20.20;;;13.50;;
11807;SDS011;5961;42.640;23.380;2023-03-04T12:36:30;24.83;;;15.67;;
11807;SDS011;5961;42.640;23.380;2023-03-04T12:39:12;22.00;;;14.27;;
11807;SDS011;5961;42.640;23.380;2023-03-04T12:41:50;21.53;;;13.90;;
11807;SDS011;5961;42.640;23.380;2023-03-04T12:44:27;25.97;;;15.63;;
11807;SDS011;5961;42.640;23.380;2023-03-04T12:47:04;24.43;;;14.90;;
11807;SDS011;5961;42.640;23.380;2023-03-04T12:49:51;22.73;;;14.73;;
11807;SDS011;5961;42.640;23.380;2023-03-04T12:52:29;23.10;;;14.30;;
11807;SDS011;5961;42.640;23.380;2023-03-04T12:55:07;18.67;;;13.20;;
11807;SDS011;5961;42.640;23.380;2023-03-04T12:57:36;21.47;;;13.83;;
11807;SDS011;5961;42.640;23.380;2023-03-04T13:00:13;23.90;;;13.53;;
11807;SDS011;5961;42.640;23.380;2023-03-04T13:02:50;22.53;;;14.23;;
11807;SDS011;5961;42.640;23.380;2023-03-04T13:05:35;19.20;;;13.23;;
11807;SDS011;5961;42.640;23.380;2023-03-04T13:08:12;20.77;;;14.17;;
11807;SDS011;5961;42.640;23.380;2023-03-04T13:10:51;21.43;;;13.50;;
11807;SDS011;5961;42.640;23.380;2023-03-04T13:13:32;23.70;;;14.53;;
11807;SDS011;5961;42.640;23.380;2023-03-04T13:16:03;22.03;;;14.20;;
11807;SDS011;5961;42.640;23.380;2023-03-04T13:18:32;21.00;;;14.20;;
11807;SDS011;5961;42.640;23.380;2023-03-04T13:23:48;24.60;;;14.43;;
11807;SDS011;5961;42.640;23.380;2023-03-04T13:26:28;20.80;;;13.83;;
11807;SDS011;5961;42.640;23.380;2023-03-04T13:32:00;24.93;;;14.53;;
11807;SDS011;5961;42.640;23.380;2023-03-04T13:34:42;23.10;;;14.83;;
11807;SDS011;5961;42.640;23.380;2023-03-04T13:37:27;25.63;;;14.87;;
11807;SDS011;5961;42.640;23.380;2023-03-04T13:43:19;20.07;;;14.23;;
11807;SDS011;5961;42.640;23.380;2023-03-04T13:45:50;26.40;;;15.23;;
11807;SDS011;5961;42.640;23.380;2023-03-04T13:48:25;21.37;;;14.30;;
11807;SDS011;5961;42.640;23.380;2023-03-04T13:50:55;21.13;;;14.37;;
11807;SDS011;5961;42.640;23.380;2023-03-04T13:53:28;20.83;;;14.23;;
11807;SDS011;5961;42.640;23.380;2023-03-04T13:59:03;25.60;;;15.30;;
11807;SDS011;5961;42.640;23.380;2023-03-04T14:01:47;23.23;;;14.77;;
11807;SDS011;5961;42.640;23.380;2023-03-04T14:04:21;24.87;;;15.00;;
11807;SDS011;5961;42.640;23.380;2023-03-04T14:06:52;22.80;;;14.27;;
11807;SDS011;5961;42.640;23.380;2023-03-04T14:09:22;24.67;;;15.30;;
11807;SDS011;5961;42.640;23.380;2023-03-04T14:11:51;26.27;;;15.23;;
11807;SDS011;5961;42.640;23.380;2023-03-04T14:14:22;25.87;;;15.33;;
11807;SDS011;5961;42.640;23.380;2023-03-04T14:16:52;22.40;;;15.03;;
11807;SDS011;5961;42.640;23.380;2023-03-04T14:19:23;20.53;;;14.10;;
11807;SDS011;5961;42.640;23.380;2023-03-04T14:21:52;22.30;;;15.23;;
11807;SDS011;5961;42.640;23.380;2023-03-04T14:24:20;23.97;;;14.97;;
11807;SDS011;5961;42.640;23.380;2023-03-04T14:26:48;24.30;;;15.87;;
11807;SDS011;5961;42.640;23.380;2023-03-04T14:29:19;25.43;;;15.97;;
11807;SDS011;5961;42.640;23.380;2023-03-04T14:31:48;25.57;;;15.10;;
11807;SDS011;5961;42.640;23.380;2023-03-04T14:34:18;24.47;;;15.80;;
11807;SDS011;5961;42.640;23.380;2023-03-04T14:36:51;24.20;;;17.37;;
11807;SDS011;5961;42.640;23.380;2023-03-04T14:39:18;27.83;;;17.13;;
11807;SDS011;5961;42.640;23.380;2023-03-04T14:41:48;23.70;;;15.37;;
11807;SDS011;5961;42.640;23.380;2023-03-04T14:44:20;28.10;;;16.40;;
11807;SDS011;5961;42.640;23.380;2023-03-04T14:46:54;25.37;;;15.63;;
11807;SDS011;5961;42.640;23.380;2023-03-04T14:49:26;23.73;;;15.40;;
11807;SDS011;5961;42.640;23.380;2023-03-04T14:51:53;20.63;;;15.30;;
11807;SDS011;5961;42.640;23.380;2023-03-04T14:54:28;27.17;;;16.77;;
11807;SDS011;5961;42.640;23.380;2023-03-04T14:56:57;22.17;;;15.10;;
11807;SDS011;5961;42.640;23.380;2023-03-04T14:59:31;21.50;;;14.90;;
11807;SDS011;5961;42.640;23.380;2023-03-04T15:02:15;23.17;;;15.40;;